Time;durP1;ratioP1;P1;durP2;ratioP2;P2;SDS_P1;SDS_P2;PMS_P1;PMS_P2;Temp;Humidity;BMP_temperature;BMP_pressure;BME280_temperature;BME280_humidity;BME280_pressure;Samples;Min_cycle;Max_cycle;Signal;HPM_P1;HPM_P2
2022/04/02 00:01:42;;;;;;;3.95;1.80;;;;;;;7.77;72.69;97645.81;6136591;23;20027;-83
2022/04/02 00:04:09;;;;;;;7.15;2.03;;;;;;;7.77;72.47;97638.75;6164502;23;20129;-84
2022/04/02 00:06:35;;;;;;;6.38;1.70;;;;;;;7.78;72.08;97643.00;6185680;23;20017;-85
2022/04/02 00:09:01;;;;;;;4.38;2.45;;;;;;;7.78;72.34;97632.50;6184882;23;20023;-86
2022/04/02 00:11:28;;;;;;;4.80;2.20;;;;;;;7.79;72.02;97631.50;6184716;23;20103;-85
2022/04/02 00:13:53;;;;;;;4.93;1.80;;;;;;;7.80;71.69;97624.44;6184316;23;20009;-85
2022/04/02 00:16:19;;;;;;;5.10;2.08;;;;;;;7.79;71.53;97628.88;6183001;23;20020;-85
2022/04/02 00:18:45;;;;;;;3.75;1.80;;;;;;;7.83;71.80;97632.78;6157294;23;20023;-84
2022/04/02 00:21:11;;;;;;;6.35;1.85;;;;;;;7.86;71.18;97626.38;6157995;23;20036;-85
2022/04/02 00:23:36;;;;;;;5.07;2.00;;;;;;;7.86;71.06;97630.81;6182182;23;20128;-84
2022/04/02 00:26:04;;;;;;;4.15;1.92;;;;;;;7.87;70.76;97628.03;6182968;23;20009;-85
2022/04/02 00:28:31;;;;;;;5.63;1.83;;;;;;;7.91;70.29;97631.13;6133252;23;20020;-85
2022/04/02 00:30:57;;;;;;;7.65;2.08;;;;;;;7.93;70.47;97637.03;6158202;23;20780;-86
2022/04/02 00:33:22;;;;;;;5.95;2.42;;;;;;;7.93;70.41;97623.91;6183868;23;20016;-85
2022/04/02 00:38:30;;;;;;;6.22;1.98;;;;;;;7.90;70.19;97618.97;6223975;22;20512;-84
2022/04/02 00:40:56;;;;;;;6.13;1.88;;;;;;;7.93;70.43;97616.84;6213842;23;20009;-87
2022/04/02 00:43:27;;;;;;;6.38;1.70;;;;;;;7.94;69.73;97617.66;6187340;23;20023;-85
2022/04/02 00:45:57;;;;;;;8.50;1.88;;;;;;;7.94;68.74;97622.91;6214457;23;20020;-84
2022/04/02 00:48:25;;;;;;;4.95;2.35;;;;;;;7.95;69.08;97624.56;6214451;23;20012;-86
2022/04/02 00:50:55;;;;;;;9.57;3.28;;;;;;;7.96;69.40;97620.91;6187531;23;20126;-86
2022/04/02 00:53:22;;;;;;;4.07;2.20;;;;;;;7.95;69.17;97620.09;6215502;23;20016;-83
2022/04/02 00:55:48;;;;;;;7.47;2.63;;;;;;;7.94;69.50;97620.28;6224931;23;20009;-84
2022/04/02 00:58:14;;;;;;;8.20;2.22;;;;;;;7.94;69.33;97612.41;6223988;23;20074;-82
2022/04/02 01:00:42;;;;;;;5.03;2.42;;;;;;;7.93;69.36;97621.28;6195950;23;20016;-84
2022/04/02 01:03:11;;;;;;;5.93;2.45;;;;;;;7.93;69.84;97616.00;6195146;23;20012;-84
2022/04/02 01:05:38;;;;;;;5.95;2.50;;;;;;;7.90;70.03;97616.34;6178997;23;19997;-83
2022/04/02 01:08:05;;;;;;;5.97;2.50;;;;;;;7.90;69.96;97619.78;6204605;23;20126;-83
2022/04/02 01:10:35;;;;;;;5.75;2.00;;;;;;;7.91;70.37;97620.59;6171543;23;20012;-85
2022/04/02 01:13:02;;;;;;;7.95;2.65;;;;;;;7.88;70.77;97615.72;6164642;23;20024;-84
2022/04/02 01:15:31;;;;;;;5.27;2.00;;;;;;;7.82;71.80;97614.59;6188756;23;20004;-84
2022/04/02 01:17:57;;;;;;;5.85;1.83;;;;;;;7.79;71.77;97610.50;6229868;23;20024;-84
2022/04/02 01:20:31;;;;;;;5.00;2.05;;;;;;;7.75;71.35;97613.66;6212806;23;20001;-85
2022/04/02 01:22:59;;;;;;;4.53;2.08;;;;;;;7.70;71.87;97611.53;6239645;23;20023;-85
2022/04/02 01:25:34;;;;;;;7.38;2.38;;;;;;;7.72;72.22;97620.03;6238120;23;19992;-86
2022/04/02 01:28:04;;;;;;;7.75;2.17;;;;;;;7.73;72.89;97621.69;6197635;23;20024;-85
2022/04/02 01:30:32;;;;;;;3.40;2.00;;;;;;;7.71;73.80;97623.69;6189341;23;20024;-85
2022/04/02 01:32:58;;;;;;;7.68;2.35;;;;;;;7.68;73.92;97629.25;6188542;23;20017;-85
2022/04/02 01:35:25;;;;;;;3.83;1.60;;;;;;;7.62;75.95;97627.31;6188895;23;20019;-84
2022/04/02 01:38:05;;;;;;;7.10;1.85;;;;;;;7.54;77.16;97619.47;6187970;23;20460;-86
2022/04/02 01:40:32;;;;;;;7.90;2.10;;;;;;;7.41;79.40;97621.84;6188372;23;20013;-84
2022/04/02 01:42:57;;;;;;;7.68;1.98;;;;;;;7.27;79.76;97615.50;6187921;23;20016;-84
2022/04/02 01:45:25;;;;;;;4.45;2.17;;;;;;;7.26;79.92;97613.03;6215398;23;20040;-84
2022/04/02 01:48:10;;;;;;;7.57;1.92;;;;;;;7.22;80.16;97616.97;6217443;23;20401;-85
2022/04/02 01:50:43;;;;;;;4.25;2.10;;;;;;;7.25;80.39;97621.88;6192231;23;20055;-86
2022/04/02 01:53:10;;;;;;;7.97;2.30;;;;;;;7.29;81.19;97623.19;6187248;23;20051;-83
2022/04/02 01:55:36;;;;;;;3.50;2.05;;;;;;;7.33;80.95;97619.25;6186249;23;20007;-85
2022/04/02 01:58:17;;;;;;;9.00;2.93;;;;;;;7.33;81.03;97624.47;6189695;23;20429;-85
2022/04/02 02:00:46;;;;;;;5.32;2.10;;;;;;;7.35;82.14;97625.16;6188288;23;20325;-85
2022/04/02 02:03:17;;;;;;;8.32;2.10;;;;;;;7.36;82.37;97616.28;6189541;23;20066;-85
2022/04/02 02:05:43;;;;;;;3.35;2.38;;;;;;;7.35;82.13;97617.28;6204479;23;20008;-85
2022/04/02 02:08:09;;;;;;;4.00;1.80;;;;;;;7.35;82.17;97612.03;6208868;23;20023;-85
2022/04/02 02:10:42;;;;;;;4.63;1.80;;;;;;;7.32;82.41;97615.78;6208772;23;20087;-83
2022/04/02 02:13:28;;;;;;;3.47;1.65;;;;;;;7.31;83.02;97610.72;6236065;23;20031;-83
2022/04/02 02:15:54;;;;;;;5.32;2.13;;;;;;;7.33;82.60;97614.00;6198292;23;20022;-85
2022/04/02 02:18:19;;;;;;;6.97;2.03;;;;;;;7.33;82.71;97619.25;6163752;23;20033;-84
2022/04/02 02:20:45;;;;;;;4.05;1.83;;;;;;;7.31;83.39;97618.56;6218895;23;20056;-85
2022/04/02 02:23:10;;;;;;;4.43;2.63;;;;;;;7.30;83.28;97617.75;6198598;23;20338;-84
2022/04/02 02:25:36;;;;;;;7.53;2.33;;;;;;;7.22;83.42;97612.56;6198533;23;20019;-84
2022/04/02 02:28:01;;;;;;;2.55;1.60;;;;;;;7.17;83.35;97619.28;6199123;23;20004;-84
2022/04/02 02:30:28;;;;;;;11.00;2.20;;;;;;;7.16;83.57;97612.41;6203228;23;20060;-82
2022/04/02 02:35:52;;;;;;;5.60;1.75;;;;;;;7.08;82.99;97615.03;6204878;23;20210;-83
2022/04/02 02:38:26;;;;;;;3.65;2.10;;;;;;;6.99;82.49;97617.69;6177748;23;20401;-84
2022/04/02 02:41:04;;;;;;;9.60;2.03;;;;;;;6.96;83.21;97620.66;6203061;23;20013;-83
2022/04/02 02:43:34;;;;;;;6.05;2.03;;;;;;;7.01;83.87;97616.72;6175577;23;20016;-85
2022/04/02 02:46:14;;;;;;;7.25;1.75;;;;;;;7.05;84.88;97620.63;6178497;23;20017;-86
2022/04/02 02:48:41;;;;;;;5.47;2.30;;;;;;;7.08;86.38;97625.53;6170585;23;20035;-87
2022/04/02 02:51:06;;;;;;;3.92;1.80;;;;;;;7.07;87.87;97622.09;6187575;23;20013;-85
2022/04/02 02:53:32;;;;;;;4.45;1.80;;;;;;;7.01;89.79;97625.38;6188070;23;20005;-84
2022/04/02 02:55:58;;;;;;;7.13;2.45;;;;;;;6.90;92.51;97634.41;6186931;23;20013;-85
2022/04/02 02:58:23;;;;;;;5.22;2.08;;;;;;;6.76;95.41;97642.16;6185941;23;20371;-85
2022/04/02 03:00:50;;;;;;;6.72;2.50;;;;;;;6.66;96.50;97651.97;6160068;23;20017;-85
2022/04/02 03:03:22;;;;;;;4.07;2.10;;;;;;;6.57;96.17;97653.78;6161355;23;20013;-84
2022/04/02 03:05:50;;;;;;;5.93;2.50;;;;;;;6.43;96.66;97649.19;6160732;23;20009;-85
2022/04/02 03:08:18;;;;;;;7.10;2.63;;;;;;;6.39;97.94;97647.88;6162250;23;20013;-84
2022/04/02 03:10:57;;;;;;;6.68;2.90;;;;;;;6.40;99.90;97641.66;6165544;23;20036;-83
2022/04/02 03:13:27;;;;;;;10.13;3.45;;;;;;;6.45;99.26;97631.50;6170725;23;20043;-83
2022/04/02 03:16:02;;;;;;;5.53;2.10;;;;;;;6.46;99.01;97643.63;6175667;23;20005;-84
2022/04/02 03:18:29;;;;;;;4.88;1.92;;;;;;;6.49;100.00;97643.28;6208171;23;20024;-82
2022/04/02 03:20:54;;;;;;;4.97;2.67;;;;;;;6.43;100.00;97630.84;6207491;22;20025;-84
2022/04/02 03:23:25;;;;;;;4.18;2.35;;;;;;;6.41;100.00;97632.81;6210191;22;20001;-83
2022/04/02 03:25:51;;;;;;;8.43;2.20;;;;;;;6.32;100.00;97629.38;6209835;22;20017;-83
2022/04/02 03:28:17;;;;;;;6.32;2.10;;;;;;;6.18;100.00;97647.53;6173349;23;20032;-83
2022/04/02 03:30:44;;;;;;;4.50;2.10;;;;;;;6.06;100.00;97649.66;6177963;23;20064;-84
2022/04/02 04:27:23;;;;;;;5.00;1.85;;;;;;;5.27;100.00;97652.59;6210976;22;20043;-83
2022/04/02 04:29:48;;;;;;;3.10;1.98;;;;;;;5.20;100.00;97660.22;6186542;23;20243;-84
2022/04/02 04:32:15;;;;;;;4.50;2.28;;;;;;;5.20;100.00;97662.84;6186459;23;20008;-84
2022/04/02 04:34:41;;;;;;;5.93;2.10;;;;;;;5.24;100.00;97664.16;6186676;23;20374;-84
2022/04/02 04:37:06;;;;;;;3.28;2.42;;;;;;;5.25;100.00;97676.25;6214141;23;20012;-84
2022/04/02 04:39:34;;;;;;;7.07;2.33;;;;;;;5.22;100.00;97671.34;6186931;23;20020;-83
2022/04/02 04:42:01;;;;;;;3.67;1.88;;;;;;;5.13;100.00;97676.69;6187542;23;20048;-83
2022/04/02 04:44:31;;;;;;;2.15;1.55;;;;;;;5.09;100.00;97678.78;6162258;23;20008;-83
2022/04/02 04:46:57;;;;;;;7.55;2.20;;;;;;;4.98;100.00;97683.47;6187457;23;20028;-85
2022/04/02 04:49:23;;;;;;;6.22;1.65;;;;;;;4.85;100.00;97681.25;6186639;23;20068;-82
2022/04/02 04:52:03;;;;;;;6.07;1.98;;;;;;;4.77;100.00;97686.41;6187912;23;20016;-82
2022/04/02 05:26:55;;;;;;;3.92;1.85;;;;;;;4.71;100.00;97715.78;6196137;22;20035;-83
2022/04/02 05:29:21;;;;;;;5.47;2.20;;;;;;;4.67;100.00;97714.41;6166910;23;20013;-81
2022/04/02 05:31:47;;;;;;;4.38;2.13;;;;;;;4.62;100.00;97716.66;6172866;23;20040;-82
2022/04/02 05:34:12;;;;;;;7.05;2.40;;;;;;;4.60;100.00;97721.19;6189349;23;20067;-83
2022/04/02 05:36:38;;;;;;;6.22;2.20;;;;;;;4.62;100.00;97719.25;6186883;23;20009;-83
2022/04/02 05:39:05;;;;;;;8.65;2.17;;;;;;;4.63;100.00;97720.91;6187111;23;20016;-84
2022/04/02 05:41:30;;;;;;;4.65;2.22;;;;;;;4.74;100.00;97728.50;6162207;23;20337;-84
2022/04/02 05:43:56;;;;;;;5.95;2.60;;;;;;;4.87;100.00;97739.41;6161632;23;20132;-83
2022/04/02 05:46:22;;;;;;;5.18;2.53;;;;;;;4.94;100.00;97741.28;6186191;23;20013;-83
2022/04/02 05:48:48;;;;;;;4.88;2.20;;;;;;;4.97;100.00;97742.75;6212284;23;20493;-84
2022/04/02 05:51:14;;;;;;;7.60;2.25;;;;;;;5.00;100.00;97750.31;6213009;23;20005;-84
2022/04/02 05:53:40;;;;;;;5.07;2.10;;;;;;;4.99;100.00;97747.84;6212728;23;20291;-83
2022/04/02 05:56:06;;;;;;;4.22;2.35;;;;;;;5.03;100.00;97752.59;6213624;23;20039;-84
2022/04/02 05:58:32;;;;;;;6.10;2.60;;;;;;;5.09;100.00;97759.84;6186089;23;20020;-83
2022/04/02 06:00:57;;;;;;;6.00;2.40;;;;;;;5.17;100.00;97762.53;6186216;23;20013;-83
2022/04/02 06:03:23;;;;;;;4.10;2.78;;;;;;;5.16;100.00;97755.66;6161335;23;20004;-81
2022/04/02 06:05:49;;;;;;;7.93;2.10;;;;;;;5.13;100.00;97750.72;6188636;23;20021;-83
2022/04/02 06:08:16;;;;;;;4.70;1.75;;;;;;;5.15;100.00;97764.47;6214548;23;20095;-82
2022/04/02 06:10:45;;;;;;;6.00;2.25;;;;;;;5.12;100.00;97758.72;6163593;23;20016;-83
2022/04/02 06:13:12;;;;;;;3.28;2.30;;;;;;;5.18;100.00;97766.78;6187852;23;20017;-83
2022/04/02 06:15:37;;;;;;;6.15;2.10;;;;;;;5.13;100.00;97766.41;6187879;23;20048;-82
2022/04/02 06:18:04;;;;;;;6.35;2.15;;;;;;;5.06;100.00;97770.63;6163051;23;20090;-81
2022/04/02 06:20:29;;;;;;;7.18;2.13;;;;;;;4.96;100.00;97769.84;6187743;23;20013;-83
2022/04/02 06:22:55;;;;;;;4.88;2.42;;;;;;;4.94;100.00;97763.97;6214587;23;20013;-83
2022/04/02 06:25:21;;;;;;;3.92;2.72;;;;;;;4.89;100.00;97779.25;6215422;23;20018;-83
2022/04/02 06:27:57;;;;;;;4.05;2.22;;;;;;;4.87;100.00;97781.22;6163509;23;20009;-81
2022/04/02 06:30:22;;;;;;;4.35;2.90;;;;;;;4.83;100.00;97780.69;6112215;23;20025;-81
2022/04/02 06:32:48;;;;;;;5.45;1.98;;;;;;;4.76;100.00;97784.88;6158617;23;20411;-83
2022/04/02 06:35:14;;;;;;;5.65;2.60;;;;;;;4.78;100.00;97792.56;6159642;23;20027;-82
2022/04/02 06:37:42;;;;;;;3.45;2.28;;;;;;;4.74;100.00;97788.63;6160323;23;20134;-80
2022/04/02 06:40:09;;;;;;;7.28;2.45;;;;;;;4.78;100.00;97782.09;6156817;23;20016;-79
2022/04/02 06:45:18;;;;;;;5.28;2.20;;;;;;;4.81;100.00;97789.66;6203526;23;20076;-80
2022/04/02 06:47:46;;;;;;;4.15;2.10;;;;;;;4.87;100.00;97794.28;6215698;23;20098;-79
2022/04/02 06:50:13;;;;;;;6.72;3.15;;;;;;;4.87;100.00;97802.97;6213591;23;20438;-80
2022/04/02 06:52:40;;;;;;;7.40;2.40;;;;;;;4.87;100.00;97802.13;6184388;23;20023;-79
2022/04/02 06:55:08;;;;;;;5.40;2.65;;;;;;;4.87;100.00;97797.72;6211802;23;20091;-82
2022/04/02 06:57:49;;;;;;;4.70;2.30;;;;;;;4.93;100.00;97806.75;6187604;23;20012;-82
2022/04/02 07:00:15;;;;;;;4.15;2.63;;;;;;;4.92;100.00;97802.50;6187664;23;20016;-80
2022/04/02 07:02:41;;;;;;;5.70;2.83;;;;;;;4.98;100.00;97803.69;6216244;23;20453;-79
2022/04/02 07:05:08;;;;;;;3.55;2.33;;;;;;;4.99;100.00;97808.78;6195821;23;20001;-80
2022/04/02 07:07:34;;;;;;;5.60;2.28;;;;;;;5.05;100.00;97815.19;6220532;23;20363;-80
2022/04/02 07:10:04;;;;;;;6.50;2.50;;;;;;;5.02;100.00;97811.06;6222941;23;20104;-80
2022/04/02 07:12:30;;;;;;;3.00;2.10;;;;;;;5.06;100.00;97812.44;6229436;23;20016;-78
2022/04/02 07:14:55;;;;;;;4.90;2.40;;;;;;;5.08;100.00;97809.66;6227577;23;20005;-81
2022/04/02 07:17:22;;;;;;;5.22;2.40;;;;;;;5.10;100.00;97815.56;6233921;23;20027;-80
2022/04/02 07:19:49;;;;;;;3.88;2.45;;;;;;;5.14;100.00;97815.09;6230137;23;20016;-82
2022/04/02 07:22:17;;;;;;;4.47;2.70;;;;;;;5.20;100.00;97817.13;6187305;23;20009;-80
2022/04/02 07:24:44;;;;;;;3.95;2.50;;;;;;;5.30;100.00;97820.47;6212015;23;20008;-80
2022/04/02 07:27:09;;;;;;;5.07;2.78;;;;;;;5.39;100.00;97823.16;6183383;23;20017;-80
2022/04/02 07:29:35;;;;;;;3.50;2.28;;;;;;;5.52;100.00;97828.81;6185358;23;20008;-82
2022/04/02 07:32:02;;;;;;;5.18;3.13;;;;;;;5.66;100.00;97836.09;6186675;23;20028;-82
2022/04/02 07:34:29;;;;;;;5.10;3.20;;;;;;;5.80;100.00;97837.31;6187619;23;20082;-81
2022/04/02 07:37:08;;;;;;;5.35;3.80;;;;;;;5.90;100.00;97836.25;6186887;23;20445;-81
2022/04/02 07:40:08;;;;;;;6.18;3.20;;;;;;;5.96;100.00;97843.50;6185632;23;20024;-82
2022/04/02 07:42:48;;;;;;;7.00;3.40;;;;;;;5.99;100.00;97853.69;6168624;23;20101;-82
2022/04/02 07:45:20;;;;;;;6.03;4.80;;;;;;;6.12;100.00;97863.72;6214510;23;20012;-78
2022/04/02 07:47:55;;;;;;;8.23;3.72;;;;;;;6.22;100.00;97861.81;6211693;23;20080;-84
2022/04/02 07:50:24;;;;;;;8.02;4.75;;;;;;;6.34;100.00;97868.41;6211627;23;20012;-82
2022/04/02 07:52:53;;;;;;;8.85;4.18;;;;;;;6.48;100.00;97873.03;6184388;23;20020;-81
2022/04/02 07:55:23;;;;;;;4.75;4.28;;;;;;;6.62;100.00;97884.72;6188722;23;20131;-82
2022/04/02 07:57:52;;;;;;;9.60;4.47;;;;;;;6.77;100.00;97883.16;6164145;23;20369;-82
2022/04/02 08:00:22;;;;;;;10.65;4.13;;;;;;;6.87;100.00;97885.63;6213315;23;20342;-82
2022/04/02 08:02:50;;;;;;;16.30;5.72;;;;;;;6.97;100.00;97889.75;6189001;23;20040;-82
2022/04/02 08:05:21;;;;;;;5.15;4.28;;;;;;;7.05;100.00;97893.38;6167765;23;20353;-84
2022/04/02 08:07:54;;;;;;;4.85;3.75;;;;;;;7.14;100.00;97905.53;6189904;23;20064;-84
2022/04/02 08:10:24;;;;;;;10.95;4.13;;;;;;;7.23;100.00;97907.19;6192762;23;20012;-84
2022/04/02 08:12:51;;;;;;;13.33;4.30;;;;;;;7.34;100.00;97910.31;6189367;23;20371;-84
2022/04/02 08:15:21;;;;;;;4.75;3.88;;;;;;;7.48;100.00;97911.47;6218343;23;20019;-85
2022/04/02 08:17:54;;;;;;;5.80;3.72;;;;;;;7.58;100.00;97914.78;6197532;23;20013;-82
2022/04/02 08:20:21;;;;;;;6.88;3.50;;;;;;;7.59;100.00;97919.03;6173215;23;20032;-81
2022/04/02 08:22:47;;;;;;;5.65;3.78;;;;;;;7.57;100.00;97915.75;6165888;23;20012;-85
2022/04/02 08:25:15;;;;;;;7.88;4.20;;;;;;;7.62;100.00;97923.94;6189143;23;20012;-80
2022/04/02 08:28:00;;;;;;;6.35;3.83;;;;;;;7.66;100.00;97930.50;6184343;23;20015;-82
2022/04/02 08:30:32;;;;;;;8.48;3.95;;;;;;;7.69;99.97;97934.63;6183745;23;20381;-82
2022/04/02 08:33:28;;;;;;;5.57;3.78;;;;;;;7.80;96.57;97948.25;6160371;23;20027;-86
2022/04/02 08:36:28;;;;;;;5.65;2.78;;;;;;;7.91;90.38;97948.88;6215361;23;20086;-85
2022/04/02 08:39:04;;;;;;;8.77;3.15;;;;;;;8.02;88.66;97956.44;6236531;23;20079;-84
2022/04/02 08:41:41;;;;;;;6.68;2.85;;;;;;;8.10;85.99;97966.94;6238776;23;20032;-83
2022/04/02 08:44:48;;;;;;;8.23;2.88;;;;;;;8.21;84.49;97972.69;6229683;23;20016;-84
2022/04/02 08:47:29;;;;;;;6.60;2.83;;;;;;;8.37;83.66;97971.84;6230511;23;20429;-82
2022/04/02 08:50:34;;;;;;;4.53;2.50;;;;;;;8.49;82.16;97981.03;6217472;23;20009;-84
2022/04/02 08:53:37;;;;;;;7.72;2.60;;;;;;;8.62;82.84;97980.50;6219401;23;20055;-80
2022/04/02 08:56:05;;;;;;;8.98;2.92;;;;;;;8.70;83.79;97984.94;6213205;23;20112;-78
2022/04/02 08:59:00;;;;;;;5.47;2.65;;;;;;;8.71;85.29;97989.22;6213576;23;20430;-83
2022/04/02 09:01:58;;;;;;;4.38;3.30;;;;;;;8.76;86.45;97987.72;6214076;23;20382;-83
2022/04/02 09:04:58;;;;;;;3.47;2.60;;;;;;;8.84;87.67;97997.38;6151301;23;20021;-84
2022/04/02 09:07:47;;;;;;;4.05;2.22;;;;;;;8.90;87.71;97994.06;6186889;23;20111;-79
2022/04/02 09:10:34;;;;;;;8.35;2.45;;;;;;;8.95;85.22;98004.91;6187661;23;20066;-86
2022/04/02 09:13:23;;;;;;;6.50;3.10;;;;;;;8.95;84.30;98010.19;6211732;23;20016;-83
2022/04/02 09:16:00;;;;;;;10.25;2.97;;;;;;;8.95;84.34;98018.88;6212465;23;20017;-82
2022/04/02 09:18:32;;;;;;;9.95;3.50;;;;;;;9.02;84.02;98014.56;6187051;23;20012;-86
2022/04/02 09:21:04;;;;;;;5.22;3.05;;;;;;;9.05;83.13;98018.69;6187309;23;20020;-82
2022/04/02 09:23:45;;;;;;;6.35;2.80;;;;;;;9.07;82.13;98026.41;6162090;23;20022;-86
2022/04/02 09:26:48;;;;;;;6.55;2.20;;;;;;;9.08;81.86;98014.88;6214307;23;20059;-81
2022/04/02 09:29:16;;;;;;;6.93;2.45;;;;;;;9.10;81.36;98021.63;6191547;23;20020;-83
2022/04/02 09:32:12;;;;;;;3.00;1.83;;;;;;;9.19;79.73;98025.06;6227232;23;20031;-82
2022/04/02 09:35:00;;;;;;;4.50;2.20;;;;;;;9.32;78.54;98026.13;6170111;23;20050;-87
2022/04/02 09:37:37;;;;;;;4.35;2.42;;;;;;;9.34;76.13;98024.16;6164813;23;20012;-85
2022/04/02 09:40:08;;;;;;;5.28;2.28;;;;;;;9.41;75.94;98024.28;6218532;23;20047;-85
2022/04/02 09:42:37;;;;;;;5.25;2.70;;;;;;;9.35;74.71;98025.78;6218857;23;20012;-86
2022/04/02 09:45:09;;;;;;;2.13;1.90;;;;;;;9.30;72.17;98033.38;6192632;23;20013;-85
2022/04/02 09:48:32;;;;;;;8.05;2.45;;;;;;;9.22;72.46;98033.41;6234087;23;20127;-85
2022/04/02 09:50:59;;;;;;;4.35;2.22;;;;;;;9.27;73.31;98033.72;6122373;23;20022;-81
2022/04/02 09:53:29;;;;;;;6.13;2.55;;;;;;;9.33;73.00;98038.28;6147401;23;20005;-82
2022/04/02 09:56:20;;;;;;;7.28;2.22;;;;;;;9.38;72.60;98038.59;6147929;23;20005;-86
2022/04/02 09:59:11;;;;;;;8.10;3.92;;;;;;;9.49;73.61;98047.09;6129858;23;20018;-85
2022/04/02 10:01:55;;;;;;;4.28;2.72;;;;;;;9.61;71.31;98045.72;6104781;23;20018;-81
2022/04/02 10:04:39;;;;;;;10.35;2.90;;;;;;;9.76;72.30;98051.91;6127914;23;20010;-85
2022/04/02 10:07:26;;;;;;;8.07;2.47;;;;;;;9.94;71.34;98044.53;6127598;23;20076;-86
2022/04/02 10:09:56;;;;;;;9.10;2.50;;;;;;;10.13;70.19;98051.94;6124485;23;20020;-79
2022/04/02 10:12:36;;;;;;;5.22;1.88;;;;;;;10.30;67.86;98057.16;6097658;23;20021;-84
2022/04/02 10:15:03;;;;;;;4.65;1.70;;;;;;;10.31;64.16;98058.81;6124842;23;20084;-83
2022/04/02 10:17:54;;;;;;;10.50;2.00;;;;;;;10.36;61.33;98054.63;6132416;23;20072;-84
2022/04/02 10:20:39;;;;;;;;;;;;;;;;;;;;;
2022/04/02 10:23:44;;;;;;;6.18;2.00;;;;;;;10.44;58.09;98053.72;6218158;23;20067;-85
2022/04/02 10:26:24;;;;;;;5.40;1.75;;;;;;;10.41;59.17;98054.09;6217598;23;20013;-84
2022/04/02 10:28:58;;;;;;;4.47;1.65;;;;;;;10.44;59.74;98048.44;6162815;23;20036;-86
2022/04/02 10:31:37;;;;;;;5.70;1.88;;;;;;;10.44;60.02;98051.09;6215039;23;20493;-85
2022/04/02 10:34:16;;;;;;;3.70;1.70;;;;;;;10.35;58.59;98065.34;6213544;23;20017;-81
2022/04/02 10:36:50;;;;;;;4.60;1.70;;;;;;;10.33;59.11;98056.78;6189568;23;20020;-83
2022/04/02 10:39:17;;;;;;;4.82;1.40;;;;;;;10.30;59.63;98051.88;6216457;23;20012;-82
2022/04/02 10:41:48;;;;;;;4.47;2.00;;;;;;;10.29;60.13;98071.34;6216515;23;20052;-86
2022/04/02 10:44:29;;;;;;;3.10;1.80;;;;;;;10.24;60.14;98070.06;6224253;23;20008;-83
2022/04/02 10:46:57;;;;;;;4.25;1.40;;;;;;;10.19;60.30;98067.09;6197295;23;20013;-84
2022/04/02 10:49:32;;;;;;;3.97;1.83;;;;;;;10.25;61.08;98068.22;6217538;23;20011;-85
2022/04/02 10:52:00;;;;;;;5.22;1.67;;;;;;;10.18;62.72;98075.22;6216300;23;20070;-84
2022/04/02 10:54:30;;;;;;;1.92;1.45;;;;;;;10.17;63.43;98073.56;6168104;23;20019;-84
2022/04/02 10:56:56;;;;;;;1.83;1.40;;;;;;;10.18;64.25;98083.13;6167939;23;20012;-85
2022/04/02 10:59:26;;;;;;;2.80;1.52;;;;;;;10.17;62.95;98084.94;6174020;23;20091;-82
2022/04/02 11:01:58;;;;;;;4.57;1.52;;;;;;;10.14;62.95;98076.50;6179572;23;20016;-83
2022/04/02 11:04:40;;;;;;;2.75;1.35;;;;;;;10.14;63.04;98084.41;6232989;23;20039;-81
2022/04/02 11:07:06;;;;;;;2.80;1.50;;;;;;;10.07;62.52;98084.28;6200026;23;20023;-82
2022/04/02 11:09:34;;;;;;;2.00;1.20;;;;;;;10.03;62.89;98082.19;6221082;23;20004;-82
2022/04/02 11:12:05;;;;;;;1.65;1.38;;;;;;;9.99;62.16;98087.00;6219425;23;20013;-83
2022/04/02 11:14:39;;;;;;;2.47;1.23;;;;;;;9.93;63.18;98081.59;6196395;23;20015;-83
2022/04/02 11:17:05;;;;;;;4.15;1.40;;;;;;;9.93;63.38;98081.59;6222974;23;20009;-82
2022/04/02 11:19:54;;;;;;;3.75;1.40;;;;;;;10.07;63.53;98073.75;6213954;23;20058;-85
2022/04/02 11:22:35;;;;;;;2.08;1.30;;;;;;;10.14;61.80;98069.41;6214379;23;20020;-84
2022/04/02 11:25:10;;;;;;;3.63;1.20;;;;;;;10.30;62.72;98078.25;6215498;23;20016;-84
2022/04/02 11:27:38;;;;;;;1.63;1.52;;;;;;;10.52;62.46;98082.69;6215353;23;20013;-84
2022/04/02 11:30:07;;;;;;;3.05;1.20;;;;;;;10.73;61.62;98080.16;6214834;23;20150;-85
2022/04/02 11:32:45;;;;;;;1.73;1.25;;;;;;;10.93;60.11;98085.75;6214832;23;20023;-84
2022/04/02 11:35:16;;;;;;;3.15;1.60;;;;;;;11.06;59.89;98081.50;6190901;23;20009;-84
2022/04/02 11:38:02;;;;;;;1.75;1.20;;;;;;;11.12;60.72;98089.69;6165858;23;20103;-84
2022/04/02 11:40:29;;;;;;;2.25;1.60;;;;;;;10.99;61.54;98080.56;6186513;23;20009;-83
2022/04/02 11:43:45;;;;;;;2.38;1.38;;;;;;;10.89;60.88;98082.66;6165680;23;20058;-85
2022/04/02 11:46:14;;;;;;;1.50;1.40;;;;;;;11.05;61.70;98082.50;6155012;23;20013;-82
2022/04/02 11:48:58;;;;;;;1.60;1.20;;;;;;;11.35;60.22;98079.84;6156521;23;20028;-83
2022/04/02 11:51:26;;;;;;;2.50;1.30;;;;;;;11.57;60.61;98083.38;6132003;23;20020;-82
2022/04/02 11:53:53;;;;;;;1.02;0.98;;;;;;;11.70;58.48;98084.34;6159013;23;20526;-83
2022/04/02 11:56:33;;;;;;;1.65;1.40;;;;;;;11.61;57.69;98093.38;6189192;23;20017;-84
2022/04/02 11:59:05;;;;;;;0.95;0.77;;;;;;;11.44;57.46;98099.84;6194497;23;20024;-83
2022/04/02 12:01:50;;;;;;;1.85;0.90;;;;;;;11.22;57.52;98106.06;6163268;23;20088;-82
2022/04/02 12:04:22;;;;;;;1.55;0.98;;;;;;;11.13;59.03;98107.16;6187509;23;20280;-81
2022/04/02 12:06:50;;;;;;;1.75;1.20;;;;;;;11.16;59.61;98102.34;6185228;23;20009;-81
2022/04/02 12:09:20;;;;;;;1.00;1.00;;;;;;;11.10;58.81;98103.06;6136762;23;20095;-86
2022/04/02 12:11:48;;;;;;;2.83;1.25;;;;;;;11.17;58.87;98108.44;6186314;23;20021;-86
2022/04/02 12:14:36;;;;;;;1.30;0.93;;;;;;;11.09;57.75;98102.22;6186152;23;20017;-81
2022/04/02 12:17:10;;;;;;;1.10;0.98;;;;;;;11.00;58.69;98111.25;6191112;23;20056;-83
2022/04/02 12:19:37;;;;;;;1.23;1.10;;;;;;;11.09;59.33;98111.97;6199348;23;20072;-81
2022/04/02 12:22:04;;;;;;;1.60;1.40;;;;;;;11.30;58.83;98109.44;6210220;22;20032;-85
2022/04/02 12:24:39;;;;;;;3.58;1.23;;;;;;;11.49;58.84;98102.75;6209183;22;19997;-83
2022/04/02 12:27:11;;;;;;;1.48;1.17;;;;;;;11.69;59.77;98108.31;6207672;22;19997;-85
2022/04/02 12:29:47;;;;;;;5.03;1.58;;;;;;;11.78;57.76;98110.69;6198662;23;20009;-83
2022/04/02 12:32:26;;;;;;;3.45;1.30;;;;;;;11.86;58.06;98102.66;6194417;23;20013;-86
2022/04/02 12:35:02;;;;;;;3.80;1.20;;;;;;;12.03;58.17;98105.06;6140407;23;20043;-83
2022/04/02 12:41:04;;;;;;;1.48;1.30;;;;;;;12.23;57.06;98121.97;6188093;23;20028;-83
2022/04/02 13:13:00;;;;;;;1.30;1.13;;;;;;;11.19;60.54;98153.97;5910003;24;20150;-83
2022/04/02 13:16:11;;;;;;;1.90;1.52;;;;;;;10.89;60.61;98158.38;5910320;24;20025;-80
2022/04/02 13:33:03;;;;;;;1.27;1.17;;;;;;;10.22;64.96;98169.56;5931678;24;20369;-82
2022/04/02 14:03:23;;;;;;;1.63;1.52;;;;;;;10.12;65.66;98192.66;6152721;23;20500;-80
2022/04/02 14:06:33;;;;;;;3.83;2.08;;;;;;;10.10;66.03;98194.66;6153011;23;20016;-81
2022/04/02 14:21:53;;;;;;;4.47;1.60;;;;;;;10.37;65.62;98201.28;6090263;23;20077;-82
2022/04/02 14:32:59;;;;;;;2.30;1.58;;;;;;;10.38;65.78;98207.38;6092934;23;20333;-80
2022/04/02 14:35:30;;;;;;;1.70;1.60;;;;;;;10.38;65.24;98218.75;6092421;23;20022;-80
2022/04/02 14:38:14;;;;;;;1.83;1.33;;;;;;;10.37;65.30;98216.31;6091070;23;20580;-82
2022/04/02 14:40:59;;;;;;;2.33;1.73;;;;;;;10.34;65.12;98221.91;6091736;23;20018;-81
2022/04/02 14:43:28;;;;;;;3.85;2.65;;;;;;;10.38;65.26;98233.75;6091631;23;20046;-81
2022/04/02 14:46:03;;;;;;;4.88;2.60;;;;;;;10.38;65.33;98228.47;6093489;23;20334;-83
2022/04/02 14:49:00;;;;;;;2.03;1.83;;;;;;;10.40;66.13;98237.03;6092155;23;20018;-83
2022/04/02 14:51:54;;;;;;;1.60;1.50;;;;;;;10.22;65.84;98232.03;6094767;23;20084;-86
2022/04/02 14:54:23;;;;;;;2.63;1.30;;;;;;;10.21;67.00;98233.84;6102818;23;20018;-82
2022/04/02 14:56:54;;;;;;;1.75;1.65;;;;;;;10.18;67.16;98243.91;6107608;23;20020;-82
2022/04/02 14:59:45;;;;;;;2.33;1.90;;;;;;;10.20;66.79;98241.91;6207197;23;20056;-85
2022/04/02 15:03:01;;;;;;;3.47;1.80;;;;;;;10.27;66.64;98246.31;6159923;23;20060;-83
2022/04/02 15:05:39;;;;;;;1.70;1.60;;;;;;;10.35;66.49;98253.38;6130721;23;20442;-86
2022/04/02 15:08:22;;;;;;;1.75;1.65;;;;;;;10.41;67.00;98259.78;6189658;23;20013;-81
2022/04/02 15:10:52;;;;;;;2.55;1.70;;;;;;;10.41;65.94;98260.59;6186724;23;20019;-85
2022/04/02 15:13:23;;;;;;;;;;;;;;;10.33;66.29;98262.44;6159439;23;20454;-85
2022/04/02 15:15:51;;;;;;;1.77;1.67;;;;;;;10.33;67.08;98263.28;6133545;23;19947;-81
2022/04/02 15:18:27;;;;;;;3.20;1.98;;;;;;;10.38;67.98;98278.56;6161244;23;20146;-85